Time;durP1;ratioP1;P1;durP2;ratioP2;P2;SDS_P1;SDS_P2;PMS_P1;PMS_P2;Temp;Humidity;BMP_temperature;BMP_pressure;BME280_temperature;BME280_humidity;BME280_pressure;Samples;Min_cycle;Max_cycle;Signal;HPM_P1;HPM_P2
2020/12/17 00:01:07;;;;;;;14.40;10.53;;;9.00;99.90;;;;;;4960783;28;20181;-77
2020/12/17 00:03:32;;;;;;;13.73;10.90;;;8.90;99.90;;;;;;4976725;28;20636;-77
2020/12/17 00:05:58;;;;;;;15.33;9.93;;;8.90;99.90;;;;;;4992781;28;20184;-76
2020/12/17 00:08:23;;;;;;;14.33;11.00;;;8.80;99.90;;;;;;4992617;28;20191;-77
2020/12/17 00:10:49;;;;;;;15.60;10.70;;;8.80;99.90;;;;;;4960452;28;20330;-77
2020/12/17 00:13:14;;;;;;;16.03;11.47;;;8.70;99.90;;;;;;4960189;28;20302;-77
2020/12/17 00:15:40;;;;;;;14.87;10.90;;;8.60;99.90;;;;;;4976622;28;20272;-75
2020/12/17 00:18:05;;;;;;;13.17;10.53;;;8.70;99.90;;;;;;4976071;28;20184;-77
2020/12/17 00:20:31;;;;;;;14.90;11.07;;;8.80;99.90;;;;;;4959686;28;20184;-77
2020/12/17 00:22:56;;;;;;;15.50;10.80;;;8.80;99.90;;;;;;4960261;28;20204;-77
2020/12/17 00:25:23;;;;;;;14.40;11.30;;;8.80;99.90;;;;;;4992648;28;20187;-78
2020/12/17 00:27:49;;;;;;;13.63;10.80;;;8.80;99.90;;;;;;4960525;28;20188;-78
2020/12/17 00:30:16;;;;;;;16.27;10.67;;;8.80;99.90;;;;;;4960344;28;20666;-78
2020/12/17 00:32:42;;;;;;;15.73;11.00;;;8.80;99.90;;;;;;4960332;28;20220;-78
2020/12/17 00:35:07;;;;;;;13.97;10.20;;;8.80;99.90;;;;;;4976954;28;20183;-78
2020/12/17 00:37:34;;;;;;;14.40;11.03;;;8.90;99.90;;;;;;4976819;28;20659;-78
2020/12/17 00:40:00;;;;;;;15.30;11.43;;;8.80;99.90;;;;;;4993067;28;20177;-77
2020/12/17 00:42:25;;;;;;;12.43;10.03;;;8.70;99.90;;;;;;4962924;28;20558;-77
2020/12/17 00:44:51;;;;;;;12.80;10.17;;;8.60;99.90;;;;;;4994515;28;20194;-75
2020/12/17 00:47:16;;;;;;;15.83;10.93;;;8.50;99.90;;;;;;4976979;28;20184;-76
2020/12/17 00:49:43;;;;;;;13.03;10.67;;;8.40;99.90;;;;;;4960509;28;20187;-76
2020/12/17 00:52:08;;;;;;;15.70;10.97;;;8.40;99.90;;;;;;4976105;28;20575;-76
2020/12/17 00:54:34;;;;;;;16.47;11.57;;;8.40;99.90;;;;;;4976199;28;20191;-76
2020/12/17 00:56:59;;;;;;;13.97;10.40;;;8.30;99.90;;;;;;4975976;28;20263;-76
2020/12/17 00:59:25;;;;;;;13.53;10.33;;;8.40;99.90;;;;;;4959845;28;20191;-77
2020/12/17 01:01:50;;;;;;;13.33;10.53;;;8.30;99.90;;;;;;4975789;28;20206;-76
2020/12/17 01:04:16;;;;;;;12.20;9.60;;;8.40;99.90;;;;;;4959996;28;20668;-76
2020/12/17 01:06:41;;;;;;;15.47;10.23;;;8.40;99.90;;;;;;4976041;28;20639;-76
2020/12/17 01:09:07;;;;;;;15.20;10.70;;;8.30;99.90;;;;;;4992072;28;20182;-77
2020/12/17 01:11:33;;;;;;;13.93;10.63;;;8.40;99.90;;;;;;4959734;28;20219;-76
2020/12/17 01:13:59;;;;;;;13.00;10.00;;;8.40;99.90;;;;;;4975869;28;20698;-77
2020/12/17 01:16:24;;;;;;;14.47;9.80;;;8.50;99.90;;;;;;4959499;28;20180;-77
2020/12/17 01:18:50;;;;;;;13.27;9.97;;;8.50;99.90;;;;;;4991730;28;20176;-76
2020/12/17 01:21:16;;;;;;;13.83;9.53;;;8.60;99.90;;;;;;4975439;28;20168;-77
2020/12/17 01:23:41;;;;;;;11.97;9.80;;;8.80;99.90;;;;;;4975780;28;20257;-77
2020/12/17 01:26:10;;;;;;;10.33;9.07;;;8.70;99.90;;;;;;4991545;28;20179;-77
2020/12/17 01:28:36;;;;;;;14.50;9.97;;;8.80;99.90;;;;;;4991818;28;20246;-77
2020/12/17 01:31:12;;;;;;;14.57;9.63;;;8.90;99.90;;;;;;4975351;28;20184;-75
2020/12/17 01:33:38;;;;;;;13.23;9.10;;;8.90;99.90;;;;;;4978836;28;20207;-77
2020/12/17 01:36:04;;;;;;;11.03;8.90;;;9.00;99.90;;;;;;4979241;28;20670;-77
2020/12/17 01:38:30;;;;;;;12.60;8.90;;;9.00;99.90;;;;;;4995648;28;20685;-77
2020/12/17 01:40:56;;;;;;;12.53;9.20;;;9.10;99.90;;;;;;4979601;28;20275;-77
2020/12/17 01:43:21;;;;;;;13.90;9.23;;;9.00;99.90;;;;;;4995606;28;20693;-77
2020/12/17 01:45:47;;;;;;;10.07;8.37;;;8.90;99.90;;;;;;4979415;28;20644;-76
2020/12/17 01:48:14;;;;;;;14.07;9.40;;;9.00;99.90;;;;;;4995274;28;20239;-76
2020/12/17 01:50:40;;;;;;;14.17;9.67;;;9.00;99.90;;;;;;4995312;28;20258;-76
2020/12/17 01:53:05;;;;;;;11.93;8.57;;;9.00;99.90;;;;;;4995318;28;20251;-76
2020/12/17 01:55:31;;;;;;;13.73;9.73;;;9.10;99.90;;;;;;4979086;28;20226;-77
2020/12/17 01:57:58;;;;;;;12.90;8.83;;;9.10;99.90;;;;;;4978920;28;20542;-76
2020/12/17 02:00:24;;;;;;;14.20;9.30;;;9.10;99.90;;;;;;4978979;28;20234;-77
2020/12/17 02:02:49;;;;;;;11.40;8.97;;;9.10;99.90;;;;;;4978969;28;20667;-77
2020/12/17 02:05:15;;;;;;;10.60;7.90;;;9.10;99.90;;;;;;4978811;28;20212;-75
2020/12/17 02:07:42;;;;;;;11.10;7.93;;;9.00;99.90;;;;;;4978729;28;20270;-77
2020/12/17 02:10:08;;;;;;;9.53;7.53;;;9.00;99.90;;;;;;4995023;28;20172;-76
2020/12/17 02:12:47;;;;;;;10.03;7.60;;;9.10;99.90;;;;;;4978713;28;20224;-77
2020/12/17 02:15:13;;;;;;;10.97;7.83;;;8.90;99.90;;;;;;4979272;28;20550;-75
2020/12/17 02:17:39;;;;;;;10.33;7.80;;;8.80;99.90;;;;;;4995306;28;20180;-74
2020/12/17 02:20:06;;;;;;;10.40;7.47;;;8.70;99.90;;;;;;4979668;28;20185;-75
2020/12/17 02:22:31;;;;;;;10.73;7.80;;;8.60;99.90;;;;;;4995529;28;20730;-76
2020/12/17 02:24:57;;;;;;;11.87;7.60;;;8.50;99.90;;;;;;4979376;28;20188;-74
2020/12/17 02:27:22;;;;;;;9.23;7.03;;;8.40;99.90;;;;;;4995105;28;20184;-75
2020/12/17 02:29:48;;;;;;;10.50;7.93;;;8.40;99.90;;;;;;4978992;28;20592;-75
2020/12/17 02:32:13;;;;;;;10.30;7.43;;;8.40;99.90;;;;;;4979067;28;20199;-76
2020/12/17 02:34:39;;;;;;;9.77;7.57;;;8.30;99.90;;;;;;4979528;28;20254;-74
2020/12/17 02:37:04;;;;;;;9.60;7.60;;;8.30;99.90;;;;;;4996622;28;20229;-76
2020/12/17 02:39:33;;;;;;;9.80;6.90;;;8.30;99.90;;;;;;5014091;28;20200;-75
2020/12/17 02:41:59;;;;;;;10.63;6.97;;;8.20;99.90;;;;;;4981788;28;20204;-75
2020/12/17 02:44:24;;;;;;;9.13;7.43;;;8.20;99.90;;;;;;4997978;28;20184;-75
2020/12/17 02:46:50;;;;;;;9.23;7.07;;;8.20;99.90;;;;;;5015357;28;20660;-75
2020/12/17 02:49:15;;;;;;;11.27;7.53;;;8.10;99.90;;;;;;4982806;28;20589;-74
2020/12/17 02:51:41;;;;;;;13.30;7.50;;;8.10;99.90;;;;;;4982663;28;20693;-74
2020/12/17 02:54:06;;;;;;;12.17;7.83;;;8.00;99.90;;;;;;4999091;28;20211;-74
2020/12/17 02:56:32;;;;;;;10.57;7.30;;;8.00;99.90;;;;;;4998910;28;20179;-74
2020/12/17 02:58:57;;;;;;;9.40;7.47;;;8.00;99.90;;;;;;4999331;28;20182;-75
2020/12/17 03:01:23;;;;;;;10.43;6.87;;;8.00;99.90;;;;;;4998814;28;20191;-75
2020/12/17 03:03:48;;;;;;;9.57;6.87;;;8.00;99.90;;;;;;4998866;28;20188;-75
2020/12/17 03:06:14;;;;;;;10.23;7.63;;;8.00;99.90;;;;;;5014991;28;20219;-74
2020/12/17 03:08:39;;;;;;;9.27;6.77;;;8.00;99.90;;;;;;5014988;28;20183;-74
2020/12/17 03:11:05;;;;;;;9.67;7.50;;;8.00;99.90;;;;;;4998320;28;20183;-75
2020/12/17 03:13:31;;;;;;;10.23;6.83;;;8.00;99.90;;;;;;5037991;22;20304;-80
2020/12/17 03:15:56;;;;;;;8.90;7.03;;;8.00;99.90;;;;;;4997388;28;20187;-80
2020/12/17 03:18:22;;;;;;;12.43;8.27;;;8.10;99.90;;;;;;4981267;28;20235;-81
2020/12/17 03:20:47;;;;;;;10.87;7.20;;;8.00;99.90;;;;;;4997722;28;20229;-81
2020/12/17 03:23:13;;;;;;;8.67;6.47;;;8.00;99.90;;;;;;4978030;28;20689;-82
2020/12/17 03:25:38;;;;;;;9.20;7.17;;;8.10;99.90;;;;;;4994433;28;20199;-81
2020/12/17 03:28:04;;;;;;;11.70;6.83;;;8.10;99.90;;;;;;4994019;28;20186;-79
2020/12/17 03:30:31;;;;;;;9.00;6.77;;;8.10;99.90;;;;;;5010395;28;20260;-81
2020/12/17 03:32:57;;;;;;;10.77;6.90;;;8.20;99.90;;;;;;4977839;28;20212;-80
2020/12/17 03:35:22;;;;;;;8.03;6.10;;;8.10;99.90;;;;;;4994239;28;20169;-81
2020/12/17 03:37:48;;;;;;;10.17;6.73;;;8.10;99.90;;;;;;4993821;28;20206;-81
2020/12/17 03:40:13;;;;;;;8.70;6.60;;;8.20;99.90;;;;;;4993999;28;20176;-82
2020/12/17 03:42:39;;;;;;;10.13;7.07;;;8.20;99.90;;;;;;4993954;28;20200;-81
2020/12/17 03:45:05;;;;;;;8.20;6.57;;;8.30;99.90;;;;;;4993808;28;20795;-80
2020/12/17 03:47:31;;;;;;;8.23;6.50;;;8.30;99.90;;;;;;4993706;28;20238;-81
2020/12/17 03:49:56;;;;;;;8.43;6.13;;;8.40;99.90;;;;;;4993494;28;20231;-81
2020/12/17 03:52:22;;;;;;;8.80;7.03;;;8.40;99.90;;;;;;4992958;28;20195;-81
2020/12/17 03:54:47;;;;;;;10.83;6.33;;;8.50;99.90;;;;;;4993411;28;20219;-80
2020/12/17 03:57:13;;;;;;;8.47;6.10;;;8.50;99.90;;;;;;4992310;28;20184;-80
2020/12/17 03:59:38;;;;;;;9.10;6.30;;;8.50;99.90;;;;;;4993591;28;20171;-81
2020/12/17 04:02:04;;;;;;;9.03;5.97;;;8.50;99.90;;;;;;4977248;28;20187;-81
2020/12/17 04:04:29;;;;;;;8.57;5.97;;;8.50;99.90;;;;;;4993471;28;20179;-81
2020/12/17 04:06:55;;;;;;;7.70;5.90;;;8.50;99.90;;;;;;4977269;28;20176;-81
2020/12/17 04:09:20;;;;;;;12.20;5.77;;;8.50;99.90;;;;;;4994387;28;20190;-81
2020/12/17 04:11:46;;;;;;;8.83;5.93;;;8.50;99.90;;;;;;4993382;28;20259;-82
2020/12/17 04:14:11;;;;;;;7.67;5.77;;;8.60;99.90;;;;;;4993024;28;20239;-81
2020/12/17 04:16:37;;;;;;;8.50;6.10;;;8.60;99.90;;;;;;4992910;28;20185;-80
2020/12/17 04:19:02;;;;;;;7.10;5.83;;;8.60;99.90;;;;;;4992999;28;20178;-80
2020/12/17 04:21:28;;;;;;;7.50;5.73;;;8.60;99.90;;;;;;4993362;28;20176;-82
2020/12/17 04:23:54;;;;;;;8.83;5.67;;;8.60;99.90;;;;;;4993133;28;20211;-80
2020/12/17 04:26:19;;;;;;;7.67;5.27;;;8.60;99.90;;;;;;4993170;28;20264;-82
2020/12/17 04:28:45;;;;;;;7.90;5.60;;;8.80;99.90;;;;;;4992946;28;20192;-82
2020/12/17 04:31:10;;;;;;;8.27;4.83;;;8.80;99.90;;;;;;4993106;28;20678;-82
2020/12/17 04:33:36;;;;;;;7.77;4.63;;;9.00;99.90;;;;;;4992814;28;20246;-81
2020/12/17 04:36:01;;;;;;;7.73;4.60;;;9.10;99.90;;;;;;4992508;28;20186;-80
2020/12/17 04:38:27;;;;;;;7.90;4.40;;;9.40;99.90;;;;;;4992798;28;20183;-80
2020/12/17 04:40:53;;;;;;;7.53;4.50;;;9.60;99.90;;;;;;4992906;28;20553;-81
2020/12/17 04:43:19;;;;;;;5.93;3.90;;;9.80;99.90;;;;;;4992810;28;20242;-83
2020/12/17 04:45:44;;;;;;;7.73;3.97;;;9.90;99.90;;;;;;4992689;28;20191;-78
2020/12/17 04:48:10;;;;;;;8.07;4.40;;;10.00;99.90;;;;;;4992199;28;20194;-79
2020/12/17 04:50:35;;;;;;;5.03;3.37;;;10.00;99.90;;;;;;4976495;28;20183;-80
2020/12/17 04:53:03;;;;;;;4.67;3.60;;;10.20;99.90;;;;;;4992317;28;20207;-80
2020/12/17 04:55:30;;;;;;;5.70;3.37;;;10.30;99.90;;;;;;4992459;28;20231;-79
2020/12/17 04:57:58;;;;;;;6.07;3.57;;;10.30;99.90;;;;;;4992092;28;20195;-79
2020/12/17 05:00:23;;;;;;;7.43;3.40;;;10.30;99.90;;;;;;4976173;28;20184;-79
2020/12/17 05:02:49;;;;;;;6.97;3.57;;;10.40;99.90;;;;;;4992174;28;20196;-80
2020/12/17 05:05:15;;;;;;;4.97;3.50;;;10.50;99.90;;;;;;4992138;28;20180;-79
2020/12/17 05:07:40;;;;;;;6.57;3.37;;;10.50;99.90;;;;;;4991726;28;20250;-79
2020/12/17 05:10:06;;;;;;;4.33;3.50;;;10.50;99.90;;;;;;4992598;28;20177;-80
2020/12/17 05:12:31;;;;;;;6.33;4.20;;;10.40;99.90;;;;;;4991922;28;20229;-81
2020/12/17 05:14:57;;;;;;;5.40;3.37;;;10.50;99.90;;;;;;4992503;28;20708;-80
2020/12/17 05:17:23;;;;;;;4.80;3.43;;;10.50;99.90;;;;;;4992347;28;20215;-81
2020/12/17 05:19:52;;;;;;;4.00;3.13;;;10.50;99.90;;;;;;4992186;28;20271;-80
2020/12/17 05:22:17;;;;;;;5.70;3.57;;;10.60;99.90;;;;;;4976022;28;20199;-80
2020/12/17 05:24:43;;;;;;;4.10;3.37;;;10.70;99.90;;;;;;4992368;28;20192;-81
2020/12/17 05:27:09;;;;;;;4.77;3.60;;;10.70;99.90;;;;;;4991872;28;20184;-80
2020/12/17 05:29:35;;;;;;;6.93;3.93;;;10.70;99.90;;;;;;4975848;28;20258;-80
2020/12/17 05:32:00;;;;;;;5.67;3.73;;;10.70;99.90;;;;;;4992288;28;20195;-81
2020/12/17 05:34:26;;;;;;;4.70;3.40;;;10.70;99.90;;;;;;4992097;28;20618;-82
2020/12/17 05:36:52;;;;;;;6.07;3.60;;;10.80;99.90;;;;;;4991923;28;20545;-81
2020/12/17 05:39:21;;;;;;;6.53;3.30;;;10.90;99.90;;;;;;4992245;28;20200;-81
2020/12/17 05:41:51;;;;;;;6.63;3.77;;;10.90;99.90;;;;;;4992291;28;20313;-81
2020/12/17 05:44:35;;;;;;;6.17;4.00;;;10.80;99.90;;;;;;4992055;28;20205;-78
2020/12/17 05:47:00;;;;;;;4.13;3.60;;;10.80;99.90;;;;;;4975612;28;20190;-79
2020/12/17 05:49:27;;;;;;;6.50;4.03;;;10.80;99.90;;;;;;4989274;28;20187;-79
2020/12/17 05:52:15;;;;;;;7.33;3.53;;;10.80;99.90;;;;;;4991991;28;20206;-79
2020/12/17 05:54:53;;;;;;;5.27;3.87;;;10.80;99.90;;;;;;4985424;28;20223;-79
2020/12/17 05:57:19;;;;;;;6.37;3.70;;;10.90;99.90;;;;;;5007734;28;20184;-80
2020/12/17 06:00:03;;;;;;;5.30;3.53;;;10.80;99.90;;;;;;4991328;28;20234;-80
2020/12/17 06:02:29;;;;;;;4.00;3.40;;;10.90;99.90;;;;;;4992020;28;20291;-81
2020/12/17 06:05:10;;;;;;;6.43;4.00;;;10.90;99.90;;;;;;4991792;28;20564;-81
2020/12/17 06:07:48;;;;;;;6.83;3.93;;;10.90;99.90;;;;;;4991585;28;20168;-81
2020/12/17 06:10:21;;;;;;;6.03;3.80;;;10.90;99.90;;;;;;4993025;28;20303;-81
2020/12/17 06:12:48;;;;;;;6.60;4.00;;;10.90;99.90;;;;;;4991703;28;20215;-82
2020/12/17 06:15:19;;;;;;;6.00;4.00;;;10.80;99.90;;;;;;4991891;28;20640;-80
2020/12/17 06:17:50;;;;;;;7.07;4.23;;;10.90;99.90;;;;;;4992249;28;20259;-81
2020/12/17 06:20:16;;;;;;;6.60;4.00;;;10.90;99.90;;;;;;4995172;28;20647;-79
2020/12/17 06:22:42;;;;;;;6.83;3.83;;;10.90;99.90;;;;;;4979439;28;20207;-81
2020/12/17 06:25:10;;;;;;;6.77;4.20;;;10.90;99.90;;;;;;4995763;28;20178;-81
2020/12/17 06:27:36;;;;;;;6.67;3.63;;;10.90;99.90;;;;;;4995424;28;20666;-80
2020/12/17 06:30:08;;;;;;;5.63;3.87;;;10.90;99.90;;;;;;4994703;28;20195;-80
2020/12/17 06:32:37;;;;;;;4.50;3.90;;;10.90;99.90;;;;;;4977373;28;20679;-81
2020/12/17 06:35:24;;;;;;;8.60;4.03;;;11.00;99.90;;;;;;4995294;28;20179;-80
2020/12/17 06:37:51;;;;;;;5.97;4.30;;;10.90;99.90;;;;;;4996402;28;20210;-86
2020/12/17 06:40:25;;;;;;;5.87;4.17;;;10.90;99.90;;;;;;4994963;28;20557;-83
2020/12/17 06:42:51;;;;;;;5.17;4.20;;;10.90;99.90;;;;;;4994823;28;20208;-83
2020/12/17 06:45:33;;;;;;;7.63;4.30;;;10.80;99.90;;;;;;4978554;28;20267;-78
2020/12/17 06:47:59;;;;;;;6.37;4.37;;;10.80;99.90;;;;;;4994369;28;20184;-80
2020/12/17 06:50:28;;;;;;;5.00;4.10;;;11.00;99.90;;;;;;4976799;28;20194;-79
2020/12/17 06:53:12;;;;;;;6.93;4.37;;;11.00;99.90;;;;;;4993049;28;20718;-80
2020/12/17 06:55:49;;;;;;;6.47;4.07;;;10.90;99.90;;;;;;4978231;28;20243;-80
2020/12/17 06:58:22;;;;;;;6.83;4.30;;;10.90;99.90;;;;;;4984766;28;20184;-82
2020/12/17 07:00:48;;;;;;;6.27;4.63;;;10.80;99.90;;;;;;4962567;28;20188;-79
2020/12/17 07:03:43;;;;;;;5.83;4.43;;;10.80;99.90;;;;;;4986422;28;20242;-79
2020/12/17 07:06:12;;;;;;;6.23;4.80;;;10.80;99.90;;;;;;4986893;28;20727;-77
2020/12/17 07:08:38;;;;;;;7.20;4.63;;;10.70;99.90;;;;;;4993530;28;20227;-77
2020/12/17 07:11:04;;;;;;;5.43;4.83;;;10.70;99.90;;;;;;4993587;28;20261;-78
2020/12/17 07:13:41;;;;;;;6.00;4.60;;;10.60;99.90;;;;;;4994119;28;20338;-79
2020/12/17 07:16:19;;;;;;;7.60;5.23;;;10.50;99.90;;;;;;4993503;28;20217;-78
2020/12/17 07:18:45;;;;;;;6.63;4.83;;;10.40;99.90;;;;;;4994062;28;20320;-77
2020/12/17 07:21:10;;;;;;;5.83;5.10;;;10.30;99.90;;;;;;4993142;28;20259;-76
2020/12/17 07:23:39;;;;;;;8.63;5.77;;;10.20;99.90;;;;;;4993276;28;20311;-77
2020/12/17 07:26:06;;;;;;;8.40;5.90;;;10.20;99.90;;;;;;4992383;28;20181;-77
2020/12/17 07:28:32;;;;;;;8.50;6.27;;;10.10;99.90;;;;;;4977172;28;20180;-77
2020/12/17 07:30:58;;;;;;;11.30;6.10;;;10.10;99.90;;;;;;4992913;28;20206;-77
2020/12/17 07:33:39;;;;;;;9.63;6.50;;;10.00;99.90;;;;;;4977842;28;20217;-79
2020/12/17 07:36:04;;;;;;;8.40;6.20;;;9.90;99.90;;;;;;4995429;28;20600;-79
2020/12/17 07:38:30;;;;;;;10.50;6.23;;;9.90;99.90;;;;;;4994254;28;20263;-76
2020/12/17 07:40:55;;;;;;;9.27;6.60;;;9.90;99.90;;;;;;5008848;28;20190;-78
2020/12/17 07:43:24;;;;;;;9.33;6.77;;;9.90;99.90;;;;;;4977273;28;20199;-79
2020/12/17 07:45:58;;;;;;;7.87;6.77;;;9.90;99.90;;;;;;4978559;28;20178;-79
2020/12/17 07:48:40;;;;;;;8.03;6.23;;;9.80;99.90;;;;;;4978056;28;20196;-79
2020/12/17 07:51:14;;;;;;;9.20;7.17;;;9.90;99.90;;;;;;4977886;28;20635;-80
2020/12/17 07:53:50;;;;;;;10.90;7.70;;;9.80;99.90;;;;;;5010569;28;20214;-80
2020/12/17 07:56:16;;;;;;;9.50;7.20;;;9.80;99.90;;;;;;4994828;28;20524;-79
2020/12/17 07:58:42;;;;;;;10.23;6.80;;;9.90;99.90;;;;;;4992562;28;20179;-80
2020/12/17 08:01:08;;;;;;;10.23;7.27;;;9.90;99.90;;;;;;4992957;28;20580;-81
2020/12/17 08:03:43;;;;;;;7.97;6.03;;;9.80;99.90;;;;;;4993638;28;20239;-80
2020/12/17 08:06:09;;;;;;;9.93;6.30;;;9.80;99.90;;;;;;4993924;28;20185;-80
2020/12/17 08:08:35;;;;;;;12.73;8.07;;;9.90;99.90;;;;;;4993886;28;20199;-81
2020/12/17 08:11:01;;;;;;;11.27;8.10;;;9.80;99.90;;;;;;4993235;28;20376;-79
2020/12/17 08:13:27;;;;;;;11.93;8.07;;;9.80;99.90;;;;;;4993816;28;20220;-85
2020/12/17 08:15:53;;;;;;;11.03;7.80;;;9.80;99.90;;;;;;4994203;28;20643;-80
2020/12/17 08:18:26;;;;;;;11.17;8.20;;;9.80;99.90;;;;;;4976536;28;20183;-82
2020/12/17 08:21:02;;;;;;;11.57;8.00;;;9.80;99.90;;;;;;5007639;28;20195;-81
2020/12/17 08:23:29;;;;;;;13.67;8.33;;;9.80;99.90;;;;;;4993131;28;20207;-80
2020/12/17 08:25:55;;;;;;;9.87;8.10;;;9.80;99.90;;;;;;4993270;28;20705;-80
2020/12/17 08:28:21;;;;;;;9.93;8.43;;;9.80;99.90;;;;;;4993828;28;20212;-83
2020/12/17 08:30:46;;;;;;;14.33;8.97;;;9.80;99.90;;;;;;4994879;28;20192;-83
2020/12/17 08:33:12;;;;;;;10.43;8.50;;;9.80;99.90;;;;;;4994311;28;20215;-85
2020/12/17 08:35:37;;;;;;;11.73;8.37;;;9.70;99.90;;;;;;4994531;28;20198;-85
2020/12/17 08:38:06;;;;;;;11.43;8.30;;;9.80;99.90;;;;;;4994208;28;20183;-85
2020/12/17 08:40:32;;;;;;;13.73;9.00;;;9.80;99.90;;;;;;4978264;28;20620;-84
2020/12/17 08:43:10;;;;;;;11.60;8.90;;;9.80;99.90;;;;;;4993694;28;20231;-84
2020/12/17 08:45:38;;;;;;;14.17;8.30;;;9.70;99.90;;;;;;4994844;28;20167;-85
2020/12/17 08:48:04;;;;;;;12.90;8.30;;;9.80;99.90;;;;;;4978618;28;20187;-82
2020/12/17 08:50:29;;;;;;;11.87;8.67;;;9.70;99.90;;;;;;4993617;28;20191;-84
2020/12/17 08:52:55;;;;;;;12.23;9.43;;;9.80;99.90;;;;;;4993627;28;20208;-85
2020/12/17 08:55:23;;;;;;;13.80;9.30;;;9.70;99.90;;;;;;4993701;28;20263;-83
2020/12/17 08:57:48;;;;;;;12.90;9.30;;;9.80;99.90;;;;;;4993587;28;20663;-84
2020/12/17 09:00:20;;;;;;;11.93;8.47;;;9.70;99.90;;;;;;4993942;28;20190;-85
2020/12/17 09:02:46;;;;;;;11.77;8.77;;;9.70;99.90;;;;;;4994174;28;20207;-86
2020/12/17 09:05:12;;;;;;;12.27;8.67;;;9.70;99.90;;;;;;4994689;28;20562;-83
2020/12/17 09:07:40;;;;;;;11.63;8.03;;;9.70;99.90;;;;;;4994528;28;20182;-84
2020/12/17 09:10:10;;;;;;;11.00;8.77;;;9.80;99.90;;;;;;4975047;28;20239;-83
2020/12/17 09:12:35;;;;;;;11.63;8.60;;;9.70;99.90;;;;;;4994017;28;20219;-84
2020/12/17 09:15:05;;;;;;;11.90;8.70;;;9.70;99.90;;;;;;5023432;23;20223;-78
2020/12/17 09:17:31;;;;;;;12.00;9.13;;;9.80;99.90;;;;;;4999374;28;20186;-76
2020/12/17 09:19:56;;;;;;;11.27;8.87;;;9.80;99.90;;;;;;5015172;28;20173;-74
2020/12/17 09:22:30;;;;;;;11.63;8.87;;;9.80;99.90;;;;;;5015700;28;20213;-75
2020/12/17 09:24:55;;;;;;;13.33;9.13;;;9.80;99.90;;;;;;5031622;28;20202;-76
2020/12/17 09:27:23;;;;;;;11.13;8.90;;;9.80;99.90;;;;;;5031337;28;20193;-75
2020/12/17 09:30:01;;;;;;;10.17;9.00;;;9.80;99.90;;;;;;5032743;28;20171;-75
2020/12/17 09:32:28;;;;;;;12.37;9.07;;;9.80;99.90;;;;;;5032306;28;20321;-75
2020/12/17 09:35:10;;;;;;;12.40;9.27;;;9.80;99.90;;;;;;5000618;28;20256;-75
2020/12/17 09:37:36;;;;;;;11.30;8.70;;;9.80;99.90;;;;;;5033058;28;20671;-74
2020/12/17 09:40:04;;;;;;;11.70;9.07;;;9.80;99.90;;;;;;5015895;28;20183;-74
2020/12/17 09:42:29;;;;;;;10.07;8.53;;;9.70;99.90;;;;;;5015795;28;20195;-74
2020/12/17 09:44:55;;;;;;;11.53;8.67;;;9.70;99.90;;;;;;5000148;28;20268;-74
2020/12/17 09:47:31;;;;;;;10.20;8.60;;;9.70;99.90;;;;;;5015799;28;20182;-75
2020/12/17 09:50:06;;;;;;;14.00;9.03;;;9.80;99.90;;;;;;4999842;28;20221;-77
2020/12/17 09:52:32;;;;;;;11.23;9.40;;;9.80;99.90;;;;;;5018097;28;20170;-81
2020/12/17 09:54:58;;;;;;;11.60;9.27;;;9.80;99.90;;;;;;5022192;28;20208;-80
2020/12/17 09:57:23;;;;;;;10.87;9.10;;;9.80;99.90;;;;;;5018895;28;20185;-80
2020/12/17 09:59:49;;;;;;;11.97;9.57;;;9.80;99.90;;;;;;5018819;28;20189;-76
2020/12/17 10:02:14;;;;;;;13.13;9.63;;;9.80;99.90;;;;;;5019195;28;20175;-75
2020/12/17 10:04:40;;;;;;;12.77;9.23;;;9.80;99.90;;;;;;5018798;28;20199;-77
2020/12/17 10:07:07;;;;;;;11.47;9.33;;;9.80;99.90;;;;;;5035483;28;20261;-72
2020/12/17 10:09:33;;;;;;;11.73;9.30;;;9.90;99.90;;;;;;5018972;28;20264;-75
2020/12/17 10:11:59;;;;;;;9.43;7.70;;;10.00;99.90;;;;;;5034928;28;20213;-73
2020/12/17 10:14:26;;;;;;;11.07;7.90;;;10.10;99.90;;;;;;5034542;28;20707;-75
2020/12/17 10:16:55;;;;;;;10.70;7.63;;;10.10;99.90;;;;;;5018068;28;20228;-72
2020/12/17 10:19:23;;;;;;;11.57;7.10;;;10.20;99.90;;;;;;5001061;28;20183;-72
2020/12/17 10:21:48;;;;;;;8.07;6.57;;;10.20;99.90;;;;;;5034243;28;20266;-73
2020/12/17 10:24:14;;;;;;;10.27;6.60;;;10.30;99.90;;;;;;5017730;28;20638;-75
2020/12/17 10:26:39;;;;;;;9.97;6.37;;;10.30;99.90;;;;;;5017762;28;20179;-77
2020/12/17 10:29:05;;;;;;;7.13;5.67;;;10.30;99.90;;;;;;5034331;28;20224;-76
2020/12/17 10:31:30;;;;;;;8.67;4.27;;;10.30;99.90;;;;;;5001634;28;20209;-77
2020/12/17 10:33:56;;;;;;;9.37;5.40;;;10.30;99.90;;;;;;5017247;28;20211;-76
2020/12/17 10:36:22;;;;;;;7.20;4.87;;;10.30;99.90;;;;;;5017132;28;20190;-76
2020/12/17 10:38:48;;;;;;;8.43;4.70;;;10.30;99.90;;;;;;5017745;28;20261;-77
2020/12/17 10:41:16;;;;;;;6.50;5.03;;;10.30;99.90;;;;;;5001258;28;20198;-76
2020/12/17 10:43:42;;;;;;;4.93;3.87;;;10.30;99.90;;;;;;5017878;28;20212;-76
2020/12/17 10:46:07;;;;;;;5.80;4.13;;;10.30;99.90;;;;;;5016981;28;20186;-76
2020/12/17 10:48:33;;;;;;;6.73;4.63;;;10.30;99.90;;;;;;5017290;28;20546;-76
2020/12/17 10:50:58;;;;;;;5.87;4.57;;;10.30;99.90;;;;;;5017179;28;20640;-77
2020/12/17 10:53:24;;;;;;;8.90;4.70;;;10.30;99.90;;;;;;5017769;28;20217;-76
2020/12/17 10:55:49;;;;;;;5.33;4.20;;;10.30;99.90;;;;;;5017482;28;20243;-75
2020/12/17 10:58:15;;;;;;;5.23;4.53;;;10.40;99.90;;;;;;5033442;28;20182;-77
2020/12/17 11:00:41;;;;;;;5.47;3.93;;;10.40;99.90;;;;;;5000919;28;20194;-76
2020/12/17 11:03:07;;;;;;;6.80;3.83;;;10.30;99.90;;;;;;5017136;28;20185;-76
2020/12/17 11:05:35;;;;;;;6.97;4.10;;;10.30;99.90;;;;;;5016424;28;20619;-75
2020/12/17 11:08:00;;;;;;;7.57;4.00;;;10.40;99.90;;;;;;5017027;28;20390;-76
2020/12/17 11:10:26;;;;;;;6.03;3.93;;;10.50;99.90;;;;;;5000514;28;20171;-78
2020/12/17 11:12:52;;;;;;;4.93;3.57;;;10.50;99.90;;;;;;5000557;28;20256;-76
2020/12/17 11:15:17;;;;;;;6.03;3.70;;;10.50;99.90;;;;;;5000348;28;20210;-77
2020/12/17 11:17:43;;;;;;;5.67;3.73;;;10.50;99.90;;;;;;5000274;28;20177;-77
2020/12/17 11:20:08;;;;;;;8.00;3.90;;;10.50;99.90;;;;;;5018234;28;20174;-80
2020/12/17 11:22:34;;;;;;;4.13;3.10;;;10.50;99.90;;;;;;5002511;28;20225;-80
2020/12/17 11:24:59;;;;;;;6.13;3.10;;;10.60;99.90;;;;;;5020377;28;20198;-81
2020/12/17 11:27:25;;;;;;;8.17;3.87;;;10.60;99.90;;;;;;5007406;28;20170;-80
2020/12/17 11:29:50;;;;;;;6.30;3.37;;;10.50;99.90;;;;;;5010363;28;20305;-80
2020/12/17 11:32:19;;;;;;;4.63;3.10;;;10.50;99.90;;;;;;5009391;28;20178;-77
2020/12/17 11:34:45;;;;;;;3.70;3.33;;;10.50;99.90;;;;;;5018892;28;20206;-77
2020/12/17 11:37:12;;;;;;;6.17;3.50;;;10.50;99.90;;;;;;5001363;28;20688;-75
2020/12/17 11:39:38;;;;;;;5.77;3.37;;;10.40;99.90;;;;;;5001963;28;20198;-79
2020/12/17 11:42:03;;;;;;;5.20;3.03;;;10.40;99.90;;;;;;5017727;28;20193;-76
2020/12/17 11:44:29;;;;;;;4.27;3.07;;;10.50;99.90;;;;;;5033185;28;20199;-78
2020/12/17 11:46:54;;;;;;;5.93;3.47;;;10.60;99.90;;;;;;4999976;28;20207;-78
2020/12/17 11:49:20;;;;;;;5.53;3.20;;;10.60;99.90;;;;;;5016288;28;20178;-77
2020/12/17 11:51:49;;;;;;;13.23;4.07;;;10.60;99.90;;;;;;5016105;28;20201;-76
2020/12/17 11:54:15;;;;;;;5.90;3.63;;;10.60;99.90;;;;;;5016857;28;20211;-78
2020/12/17 11:56:41;;;;;;;5.17;3.30;;;10.70;99.90;;;;;;5001724;28;20193;-73
2020/12/17 11:59:06;;;;;;;4.50;2.90;;;10.70;99.90;;;;;;4999405;28;20181;-74
2020/12/17 12:01:32;;;;;;;3.93;2.90;;;10.60;99.90;;;;;;5034386;28;20234;-75
2020/12/17 12:03:57;;;;;;;7.00;3.27;;;10.60;99.90;;;;;;5018029;28;20221;-76
2020/12/17 12:06:23;;;;;;;6.90;3.33;;;10.60;99.90;;;;;;5017766;28;20190;-75
2020/12/17 12:08:48;;;;;;;6.07;3.23;;;10.60;99.90;;;;;;5016871;28;20175;-75
2020/12/17 12:11:17;;;;;;;6.40;3.10;;;10.60;99.90;;;;;;5034447;28;20179;-75
2020/12/17 12:13:42;;;;;;;7.40;3.20;;;10.60;99.90;;;;;;5015659;28;20250;-71
2020/12/17 12:16:12;;;;;;;7.27;2.83;;;10.60;99.90;;;;;;5032485;28;20199;-71
2020/12/17 12:18:37;;;;;;;6.23;2.83;;;10.60;99.90;;;;;;5014912;28;21579;-72
2020/12/17 12:21:03;;;;;;;6.27;2.80;;;10.70;99.90;;;;;;5032109;28;20179;-73
2020/12/17 12:23:28;;;;;;;5.83;2.73;;;10.60;99.90;;;;;;5031901;28;20205;-74
2020/12/17 12:25:54;;;;;;;4.53;2.73;;;10.50;99.90;;;;;;4998838;28;20189;-74
2020/12/17 12:28:19;;;;;;;4.57;2.40;;;10.60;99.90;;;;;;5031647;28;20236;-74
2020/12/17 12:30:45;;;;;;;5.17;2.40;;;10.60;99.90;;;;;;4999375;28;20186;-74
2020/12/17 12:33:10;;;;;;;7.03;2.77;;;10.70;99.90;;;;;;5032369;28;20275;-78
2020/12/17 12:35:36;;;;;;;4.93;2.60;;;10.70;99.90;;;;;;5016867;28;20194;-76
2020/12/17 12:38:02;;;;;;;5.20;2.87;;;10.70;99.90;;;;;;5016543;28;20185;-78
2020/12/17 12:40:27;;;;;;;5.47;2.80;;;10.70;99.90;;;;;;5016643;28;20175;-80
2020/12/17 12:42:53;;;;;;;6.20;2.40;;;10.70;99.90;;;;;;5000345;28;20194;-81
2020/12/17 12:45:18;;;;;;;7.43;2.93;;;10.70;99.90;;;;;;4999146;28;20209;-77
2020/12/17 12:47:44;;;;;;;3.53;2.10;;;10.70;99.90;;;;;;5032027;28;20205;-78